sensor_id;sensor_type;location;lat;lon;timestamp;temperature;humidity
18225;DHT22;9237;48.590;8.854;2022-09-23T00:02:05;5.40;99.90
18225;DHT22;9237;48.590;8.854;2022-09-23T00:04:33;5.20;99.90
18225;DHT22;9237;48.590;8.854;2022-09-23T00:07:00;5.10;99.90
18225;DHT22;9237;48.590;8.854;2022-09-23T00:09:27;5.00;99.90
18225;DHT22;9237;48.590;8.854;2022-09-23T00:11:54;4.90;99.90
18225;DHT22;9237;48.590;8.854;2022-09-23T00:14:21;4.80;99.90
18225;DHT22;9237;48.590;8.854;2022-09-23T00:16:47;4.80;99.90
18225;DHT22;9237;48.590;8.854;2022-09-23T00:19:16;4.90;99.90
18225;DHT22;9237;48.590;8.854;2022-09-23T00:21:42;4.90;99.90
18225;DHT22;9237;48.590;8.854;2022-09-23T00:24:09;4.90;99.90
18225;DHT22;9237;48.590;8.854;2022-09-23T00:26:36;5.00;99.90
18225;DHT22;9237;48.590;8.854;2022-09-23T00:29:03;5.10;99.90
18225;DHT22;9237;48.590;8.854;2022-09-23T00:31:29;5.20;99.90
18225;DHT22;9237;48.590;8.854;2022-09-23T00:33:58;4.90;99.90
18225;DHT22;9237;48.590;8.854;2022-09-23T00:36:27;4.70;99.90
18225;DHT22;9237;48.590;8.854;2022-09-23T00:38:55;4.50;99.90
18225;DHT22;9237;48.590;8.854;2022-09-23T00:41:23;4.50;99.90
18225;DHT22;9237;48.590;8.854;2022-09-23T00:43:52;4.50;99.90
18225;DHT22;9237;48.590;8.854;2022-09-23T00:46:22;4.40;99.90
18225;DHT22;9237;48.590;8.854;2022-09-23T00:48:56;4.40;99.90
18225;DHT22;9237;48.590;8.854;2022-09-23T00:51:28;4.40;99.90
18225;DHT22;9237;48.590;8.854;2022-09-23T00:53:58;4.60;99.90
18225;DHT22;9237;48.590;8.854;2022-09-23T00:56:25;4.70;99.90
18225;DHT22;9237;48.590;8.854;2022-09-23T00:58:53;4.60;99.90
18225;DHT22;9237;48.590;8.854;2022-09-23T01:01:19;4.60;99.90
18225;DHT22;9237;48.590;8.854;2022-09-23T01:03:47;4.80;99.90
18225;DHT22;9237;48.590;8.854;2022-09-23T01:06:14;4.80;99.90
18225;DHT22;9237;48.590;8.854;2022-09-23T01:08:44;4.70;99.90
18225;DHT22;9237;48.590;8.854;2022-09-23T01:11:35;4.80;99.90
18225;DHT22;9237;48.590;8.854;2022-09-23T01:14:14;4.70;99.90
18225;DHT22;9237;48.590;8.854;2022-09-23T01:16:51;4.60;99.90
18225;DHT22;9237;48.590;8.854;2022-09-23T01:19:38;4.40;99.90
18225;DHT22;9237;48.590;8.854;2022-09-23T01:22:15;4.30;99.90
18225;DHT22;9237;48.590;8.854;2022-09-23T01:24:48;4.20;99.90
18225;DHT22;9237;48.590;8.854;2022-09-23T01:27:36;4.20;99.90
18225;DHT22;9237;48.590;8.854;2022-09-23T01:30:17;4.20;99.90
18225;DHT22;9237;48.590;8.854;2022-09-23T01:33:10;4.10;99.90
18225;DHT22;9237;48.590;8.854;2022-09-23T01:35:46;4.00;99.90
18225;DHT22;9237;48.590;8.854;2022-09-23T01:38:31;4.10;99.90
18225;DHT22;9237;48.590;8.854;2022-09-23T01:41:03;4.00;99.90
18225;DHT22;9237;48.590;8.854;2022-09-23T01:43:41;3.90;99.90
18225;DHT22;9237;48.590;8.854;2022-09-23T01:46:15;3.90;99.90
18225;DHT22;9237;48.590;8.854;2022-09-23T01:48:49;3.80;99.90
18225;DHT22;9237;48.590;8.854;2022-09-23T01:51:21;3.80;99.90
18225;DHT22;9237;48.590;8.854;2022-09-23T01:53:54;3.70;99.90
18225;DHT22;9237;48.590;8.854;2022-09-23T01:56:26;3.70;99.90
18225;DHT22;9237;48.590;8.854;2022-09-23T01:58:57;3.60;99.90
18225;DHT22;9237;48.590;8.854;2022-09-23T02:01:29;3.60;99.90
18225;DHT22;9237;48.590;8.854;2022-09-23T02:04:04;3.60;99.90
18225;DHT22;9237;48.590;8.854;2022-09-23T02:06:36;3.50;99.90
18225;DHT22;9237;48.590;8.854;2022-09-23T02:09:07;3.40;99.90
18225;DHT22;9237;48.590;8.854;2022-09-23T02:11:35;3.30;99.90
18225;DHT22;9237;48.590;8.854;2022-09-23T02:14:07;3.20;99.90
18225;DHT22;9237;48.590;8.854;2022-09-23T02:16:38;3.20;99.90
18225;DHT22;9237;48.590;8.854;2022-09-23T02:19:12;3.30;99.90
18225;DHT22;9237;48.590;8.854;2022-09-23T02:21:41;3.30;99.90
18225;DHT22;9237;48.590;8.854;2022-09-23T02:24:18;3.30;99.90
18225;DHT22;9237;48.590;8.854;2022-09-23T02:26:48;3.30;99.90
18225;DHT22;9237;48.590;8.854;2022-09-23T02:29:20;3.20;99.90
18225;DHT22;9237;48.590;8.854;2022-09-23T02:31:55;3.20;99.90
18225;DHT22;9237;48.590;8.854;2022-09-23T02:34:38;3.20;99.90
18225;DHT22;9237;48.590;8.854;2022-09-23T02:37:14;3.10;99.90
18225;DHT22;9237;48.590;8.854;2022-09-23T02:39:54;3.20;99.90
18225;DHT22;9237;48.590;8.854;2022-09-23T02:42:29;3.20;99.90
18225;DHT22;9237;48.590;8.854;2022-09-23T02:44:59;3.20;99.90
18225;DHT22;9237;48.590;8.854;2022-09-23T02:47:28;3.20;99.90
18225;DHT22;9237;48.590;8.854;2022-09-23T02:49:58;3.10;99.90
18225;DHT22;9237;48.590;8.854;2022-09-23T02:52:25;3.10;99.90
18225;DHT22;9237;48.590;8.854;2022-09-23T02:54:52;3.00;99.90
18225;DHT22;9237;48.590;8.854;2022-09-23T02:57:19;2.90;99.90
18225;DHT22;9237;48.590;8.854;2022-09-23T02:59:46;2.80;99.90
18225;DHT22;9237;48.590;8.854;2022-09-23T03:02:33;2.80;99.90
18225;DHT22;9237;48.590;8.854;2022-09-23T03:05:10;2.70;99.90
18225;DHT22;9237;48.590;8.854;2022-09-23T03:07:48;2.80;99.90
18225;DHT22;9237;48.590;8.854;2022-09-23T03:10:21;2.70;99.90
18225;DHT22;9237;48.590;8.854;2022-09-23T03:12:56;2.70;99.90
18225;DHT22;9237;48.590;8.854;2022-09-23T03:15:33;2.70;99.90
18225;DHT22;9237;48.590;8.854;2022-09-23T03:18:08;2.60;99.90
18225;DHT22;9237;48.590;8.854;2022-09-23T03:20:41;2.50;99.90
18225;DHT22;9237;48.590;8.854;2022-09-23T03:23:13;2.50;99.90
18225;DHT22;9237;48.590;8.854;2022-09-23T03:25:44;2.50;99.90
18225;DHT22;9237;48.590;8.854;2022-09-23T03:28:14;2.50;99.90
18225;DHT22;9237;48.590;8.854;2022-09-23T03:30:43;2.60;99.90
18225;DHT22;9237;48.590;8.854;2022-09-23T03:33:11;2.70;99.90
18225;DHT22;9237;48.590;8.854;2022-09-23T03:35:44;2.70;99.90
18225;DHT22;9237;48.590;8.854;2022-09-23T03:38:34;2.60;99.90
18225;DHT22;9237;48.590;8.854;2022-09-23T03:41:03;2.60;99.90
18225;DHT22;9237;48.590;8.854;2022-09-23T03:43:31;2.60;99.90
18225;DHT22;9237;48.590;8.854;2022-09-23T03:45:58;2.60;99.90
18225;DHT22;9237;48.590;8.854;2022-09-23T03:48:25;2.50;99.90
18225;DHT22;9237;48.590;8.854;2022-09-23T03:50:54;2.40;99.90
18225;DHT22;9237;48.590;8.854;2022-09-23T03:53:21;2.40;99.90
18225;DHT22;9237;48.590;8.854;2022-09-23T03:55:48;2.60;99.90
18225;DHT22;9237;48.590;8.854;2022-09-23T03:58:15;2.80;99.90
18225;DHT22;9237;48.590;8.854;2022-09-23T04:00:42;2.90;99.90
18225;DHT22;9237;48.590;8.854;2022-09-23T04:03:09;2.80;99.90
18225;DHT22;9237;48.590;8.854;2022-09-23T04:05:36;2.80;99.90
18225;DHT22;9237;48.590;8.854;2022-09-23T04:08:04;2.90;99.90
18225;DHT22;9237;48.590;8.854;2022-09-23T04:10:31;2.80;99.90
18225;DHT22;9237;48.590;8.854;2022-09-23T04:12:58;2.70;99.90
18225;DHT22;9237;48.590;8.854;2022-09-23T04:15:25;2.60;99.90
18225;DHT22;9237;48.590;8.854;2022-09-23T04:17:52;2.50;99.90
18225;DHT22;9237;48.590;8.854;2022-09-23T04:20:19;2.50;99.90
18225;DHT22;9237;48.590;8.854;2022-09-23T04:22:45;2.40;99.90
18225;DHT22;9237;48.590;8.854;2022-09-23T04:25:14;2.40;99.90
18225;DHT22;9237;48.590;8.854;2022-09-23T04:27:40;2.30;99.90
18225;DHT22;9237;48.590;8.854;2022-09-23T04:30:08;2.30;99.90
18225;DHT22;9237;48.590;8.854;2022-09-23T04:32:35;2.20;99.90
18225;DHT22;9237;48.590;8.854;2022-09-23T04:35:03;2.20;99.90
18225;DHT22;9237;48.590;8.854;2022-09-23T04:37:30;2.30;99.90
18225;DHT22;9237;48.590;8.854;2022-09-23T04:39:56;2.30;99.90
18225;DHT22;9237;48.590;8.854;2022-09-23T04:42:27;2.40;99.90
18225;DHT22;9237;48.590;8.854;2022-09-23T04:44:54;2.30;99.90
18225;DHT22;9237;48.590;8.854;2022-09-23T04:47:20;2.20;99.90
18225;DHT22;9237;48.590;8.854;2022-09-23T04:49:47;2.10;99.90
18225;DHT22;9237;48.590;8.854;2022-09-23T04:52:14;2.10;99.90
18225;DHT22;9237;48.590;8.854;2022-09-23T04:54:41;2.10;99.90
18225;DHT22;9237;48.590;8.854;2022-09-23T04:57:08;2.20;99.90
18225;DHT22;9237;48.590;8.854;2022-09-23T04:59:36;2.30;99.90
18225;DHT22;9237;48.590;8.854;2022-09-23T05:02:03;2.20;99.90
18225;DHT22;9237;48.590;8.854;2022-09-23T05:04:30;2.40;99.90
18225;DHT22;9237;48.590;8.854;2022-09-23T05:06:57;2.40;99.90
18225;DHT22;9237;48.590;8.854;2022-09-23T05:09:24;2.50;99.90
18225;DHT22;9237;48.590;8.854;2022-09-23T05:11:50;2.50;99.90
18225;DHT22;9237;48.590;8.854;2022-09-23T05:14:18;2.50;99.90
18225;DHT22;9237;48.590;8.854;2022-09-23T05:16:46;2.70;99.90
18225;DHT22;9237;48.590;8.854;2022-09-23T05:19:12;2.60;99.90
18225;DHT22;9237;48.590;8.854;2022-09-23T05:21:39;2.50;99.90
18225;DHT22;9237;48.590;8.854;2022-09-23T05:24:06;2.40;99.90
18225;DHT22;9237;48.590;8.854;2022-09-23T05:26:34;2.30;99.90
18225;DHT22;9237;48.590;8.854;2022-09-23T05:29:00;2.30;99.90
18225;DHT22;9237;48.590;8.854;2022-09-23T05:31:28;2.40;99.90
18225;DHT22;9237;48.590;8.854;2022-09-23T05:33:58;2.60;99.90
18225;DHT22;9237;48.590;8.854;2022-09-23T05:36:26;2.70;99.90
18225;DHT22;9237;48.590;8.854;2022-09-23T05:38:54;2.70;99.90
18225;DHT22;9237;48.590;8.854;2022-09-23T05:41:24;2.80;99.90
18225;DHT22;9237;48.590;8.854;2022-09-23T05:43:51;2.90;99.90
18225;DHT22;9237;48.590;8.854;2022-09-23T05:46:20;3.00;99.90
18225;DHT22;9237;48.590;8.854;2022-09-23T05:48:48;3.00;99.90
18225;DHT22;9237;48.590;8.854;2022-09-23T05:51:18;3.10;99.90
18225;DHT22;9237;48.590;8.854;2022-09-23T05:53:45;3.20;99.90
18225;DHT22;9237;48.590;8.854;2022-09-23T05:56:13;3.20;99.90
18225;DHT22;9237;48.590;8.854;2022-09-23T05:58:41;3.30;99.90
18225;DHT22;9237;48.590;8.854;2022-09-23T06:01:09;3.50;99.90
18225;DHT22;9237;48.590;8.854;2022-09-23T06:03:36;3.90;99.90
18225;DHT22;9237;48.590;8.854;2022-09-23T06:06:04;4.30;99.90
18225;DHT22;9237;48.590;8.854;2022-09-23T06:08:32;4.60;99.90
18225;DHT22;9237;48.590;8.854;2022-09-23T06:11:03;4.70;99.90
18225;DHT22;9237;48.590;8.854;2022-09-23T06:13:32;4.90;99.90
18225;DHT22;9237;48.590;8.854;2022-09-23T06:16:01;5.00;99.90
18225;DHT22;9237;48.590;8.854;2022-09-23T06:18:27;5.20;99.90
18225;DHT22;9237;48.590;8.854;2022-09-23T06:20:54;5.40;99.90
18225;DHT22;9237;48.590;8.854;2022-09-23T06:23:21;5.50;99.90
18225;DHT22;9237;48.590;8.854;2022-09-23T06:25:49;5.80;99.90
18225;DHT22;9237;48.590;8.854;2022-09-23T06:28:16;6.20;99.90
18225;DHT22;9237;48.590;8.854;2022-09-23T06:30:43;6.50;99.90
18225;DHT22;9237;48.590;8.854;2022-09-23T06:33:10;7.00;99.90
18225;DHT22;9237;48.590;8.854;2022-09-23T06:35:36;7.50;99.90
18225;DHT22;9237;48.590;8.854;2022-09-23T06:38:03;7.80;99.90
18225;DHT22;9237;48.590;8.854;2022-09-23T06:40:30;8.20;99.90
18225;DHT22;9237;48.590;8.854;2022-09-23T06:42:59;8.60;99.90
18225;DHT22;9237;48.590;8.854;2022-09-23T06:45:27;8.80;99.90
18225;DHT22;9237;48.590;8.854;2022-09-23T06:47:54;8.70;99.90
18225;DHT22;9237;48.590;8.854;2022-09-23T06:50:23;9.00;99.90
18225;DHT22;9237;48.590;8.854;2022-09-23T06:52:51;9.30;99.90
18225;DHT22;9237;48.590;8.854;2022-09-23T06:55:21;9.40;99.90
18225;DHT22;9237;48.590;8.854;2022-09-23T06:57:49;9.60;99.90
18225;DHT22;9237;48.590;8.854;2022-09-23T07:00:17;9.80;99.90
18225;DHT22;9237;48.590;8.854;2022-09-23T07:02:45;10.10;99.90
18225;DHT22;9237;48.590;8.854;2022-09-23T07:05:12;10.20;99.90
18225;DHT22;9237;48.590;8.854;2022-09-23T07:07:40;10.20;99.90
18225;DHT22;9237;48.590;8.854;2022-09-23T07:10:07;10.60;99.90
18225;DHT22;9237;48.590;8.854;2022-09-23T07:12:34;10.60;99.90
18225;DHT22;9237;48.590;8.854;2022-09-23T07:15:01;10.80;99.90
18225;DHT22;9237;48.590;8.854;2022-09-23T07:17:29;11.00;99.90
18225;DHT22;9237;48.590;8.854;2022-09-23T07:19:56;11.30;99.90
18225;DHT22;9237;48.590;8.854;2022-09-23T07:22:23;11.20;99.90
18225;DHT22;9237;48.590;8.854;2022-09-23T07:24:51;11.40;99.90
18225;DHT22;9237;48.590;8.854;2022-09-23T07:27:22;11.70;99.90
18225;DHT22;9237;48.590;8.854;2022-09-23T07:29:49;11.70;99.90
18225;DHT22;9237;48.590;8.854;2022-09-23T07:32:16;11.60;99.90
18225;DHT22;9237;48.590;8.854;2022-09-23T07:34:45;11.70;99.90
18225;DHT22;9237;48.590;8.854;2022-09-23T07:37:12;11.60;99.90
18225;DHT22;9237;48.590;8.854;2022-09-23T07:39:39;11.30;99.90
18225;DHT22;9237;48.590;8.854;2022-09-23T07:42:06;11.40;99.90
18225;DHT22;9237;48.590;8.854;2022-09-23T07:44:33;11.30;99.90
18225;DHT22;9237;48.590;8.854;2022-09-23T07:47:00;11.20;99.90
18225;DHT22;9237;48.590;8.854;2022-09-23T07:49:27;11.40;99.90
18225;DHT22;9237;48.590;8.854;2022-09-23T07:51:55;11.40;99.90
18225;DHT22;9237;48.590;8.854;2022-09-23T07:54:22;11.60;99.90
18225;DHT22;9237;48.590;8.854;2022-09-23T07:56:54;11.60;99.90
18225;DHT22;9237;48.590;8.854;2022-09-23T07:59:20;11.60;99.90
18225;DHT22;9237;48.590;8.854;2022-09-23T08:01:49;11.60;99.90
18225;DHT22;9237;48.590;8.854;2022-09-23T08:04:20;11.70;99.90
18225;DHT22;9237;48.590;8.854;2022-09-23T08:06:49;11.70;99.90
18225;DHT22;9237;48.590;8.854;2022-09-23T08:09:19;11.60;99.90
18225;DHT22;9237;48.590;8.854;2022-09-23T08:11:46;11.60;99.90
18225;DHT22;9237;48.590;8.854;2022-09-23T08:14:14;11.80;99.90
18225;DHT22;9237;48.590;8.854;2022-09-23T08:16:43;12.10;99.90
18225;DHT22;9237;48.590;8.854;2022-09-23T08:19:10;12.30;99.90
18225;DHT22;9237;48.590;8.854;2022-09-23T08:21:38;12.50;99.90
18225;DHT22;9237;48.590;8.854;2022-09-23T08:24:06;12.60;99.90
18225;DHT22;9237;48.590;8.854;2022-09-23T08:26:34;12.60;99.90
18225;DHT22;9237;48.590;8.854;2022-09-23T08:29:03;12.50;99.90
18225;DHT22;9237;48.590;8.854;2022-09-23T08:31:30;12.50;99.90
18225;DHT22;9237;48.590;8.854;2022-09-23T08:33:57;12.40;99.90
18225;DHT22;9237;48.590;8.854;2022-09-23T08:36:25;12.50;99.90
18225;DHT22;9237;48.590;8.854;2022-09-23T08:38:52;12.50;99.90
18225;DHT22;9237;48.590;8.854;2022-09-23T08:41:26;12.30;99.90
18225;DHT22;9237;48.590;8.854;2022-09-23T08:44:02;12.40;99.90
18225;DHT22;9237;48.590;8.854;2022-09-23T08:46:33;12.20;99.90
18225;DHT22;9237;48.590;8.854;2022-09-23T08:49:03;12.20;99.90
18225;DHT22;9237;48.590;8.854;2022-09-23T08:51:37;12.40;99.90
18225;DHT22;9237;48.590;8.854;2022-09-23T08:54:08;12.70;99.90
18225;DHT22;9237;48.590;8.854;2022-09-23T08:56:36;13.00;99.90
18225;DHT22;9237;48.590;8.854;2022-09-23T08:59:10;13.40;99.90
18225;DHT22;9237;48.590;8.854;2022-09-23T09:01:41;14.10;99.90
18225;DHT22;9237;48.590;8.854;2022-09-23T09:04:15;14.50;99.90
18225;DHT22;9237;48.590;8.854;2022-09-23T09:06:45;14.70;99.90
18225;DHT22;9237;48.590;8.854;2022-09-23T09:09:20;14.70;99.90
18225;DHT22;9237;48.590;8.854;2022-09-23T09:11:50;15.10;99.90
18225;DHT22;9237;48.590;8.854;2022-09-23T09:14:23;15.10;99.90
18225;DHT22;9237;48.590;8.854;2022-09-23T09:17:00;15.30;99.90
18225;DHT22;9237;48.590;8.854;2022-09-23T09:19:41;15.70;99.90
18225;DHT22;9237;48.590;8.854;2022-09-23T09:22:17;15.80;99.90
18225;DHT22;9237;48.590;8.854;2022-09-23T09:24:48;16.10;99.90
18225;DHT22;9237;48.590;8.854;2022-09-23T09:27:14;16.70;99.90
18225;DHT22;9237;48.590;8.854;2022-09-23T09:29:45;16.90;99.90
18225;DHT22;9237;48.590;8.854;2022-09-23T09:32:21;16.60;99.90
18225;DHT22;9237;48.590;8.854;2022-09-23T09:34:53;16.40;99.90
18225;DHT22;9237;48.590;8.854;2022-09-23T09:37:24;16.40;99.90
18225;DHT22;9237;48.590;8.854;2022-09-23T09:39:54;16.60;99.90
18225;DHT22;9237;48.590;8.854;2022-09-23T09:42:25;17.40;99.90
18225;DHT22;9237;48.590;8.854;2022-09-23T09:44:57;18.20;99.90
18225;DHT22;9237;48.590;8.854;2022-09-23T09:47:34;18.30;99.90
18225;DHT22;9237;48.590;8.854;2022-09-23T09:50:13;18.50;99.90
18225;DHT22;9237;48.590;8.854;2022-09-23T09:52:43;18.90;99.90
18225;DHT22;9237;48.590;8.854;2022-09-23T09:55:23;19.70;99.90
18225;DHT22;9237;48.590;8.854;2022-09-23T09:57:54;20.40;99.90
18225;DHT22;9237;48.590;8.854;2022-09-23T10:00:39;20.90;99.90
18225;DHT22;9237;48.590;8.854;2022-09-23T10:03:23;21.10;99.70
18225;DHT22;9237;48.590;8.854;2022-09-23T10:05:52;21.10;98.20
18225;DHT22;9237;48.590;8.854;2022-09-23T10:08:25;20.30;98.00
18225;DHT22;9237;48.590;8.854;2022-09-23T10:10:58;19.90;99.60
18225;DHT22;9237;48.590;8.854;2022-09-23T10:13:26;20.30;99.40
18225;DHT22;9237;48.590;8.854;2022-09-23T10:15:55;20.60;98.90
18225;DHT22;9237;48.590;8.854;2022-09-23T10:18:28;21.30;97.50
18225;DHT22;9237;48.590;8.854;2022-09-23T10:21:00;21.50;96.90
18225;DHT22;9237;48.590;8.854;2022-09-23T10:23:28;21.60;96.20
18225;DHT22;9237;48.590;8.854;2022-09-23T10:25:59;21.70;95.60
18225;DHT22;9237;48.590;8.854;2022-09-23T10:28:45;21.60;95.50
18225;DHT22;9237;48.590;8.854;2022-09-23T10:31:21;21.30;94.70
18225;DHT22;9237;48.590;8.854;2022-09-23T10:33:51;20.40;95.30
18225;DHT22;9237;48.590;8.854;2022-09-23T10:36:19;20.30;96.20
18225;DHT22;9237;48.590;8.854;2022-09-23T10:38:48;20.10;95.40
18225;DHT22;9237;48.590;8.854;2022-09-23T10:41:23;20.20;96.40
18225;DHT22;9237;48.590;8.854;2022-09-23T10:44:25;20.30;96.50
18225;DHT22;9237;48.590;8.854;2022-09-23T10:47:21;20.30;95.70
18225;DHT22;9237;48.590;8.854;2022-09-23T10:50:02;20.30;95.60
18225;DHT22;9237;48.590;8.854;2022-09-23T10:52:44;20.00;95.50
18225;DHT22;9237;48.590;8.854;2022-09-23T10:55:22;20.30;96.20
18225;DHT22;9237;48.590;8.854;2022-09-23T10:58:04;20.00;95.20
18225;DHT22;9237;48.590;8.854;2022-09-23T11:00:41;20.10;95.70
18225;DHT22;9237;48.590;8.854;2022-09-23T11:06:23;19.80;96.20
18225;DHT22;9237;48.590;8.854;2022-09-23T11:09:05;20.00;94.70
18225;DHT22;9237;48.590;8.854;2022-09-23T11:11:43;20.10;94.20
18225;DHT22;9237;48.590;8.854;2022-09-23T11:14:28;19.90;95.10
18225;DHT22;9237;48.590;8.854;2022-09-23T11:17:08;19.60;95.30
18225;DHT22;9237;48.590;8.854;2022-09-23T11:19:57;19.70;96.30
18225;DHT22;9237;48.590;8.854;2022-09-23T11:22:37;19.50;94.90
18225;DHT22;9237;48.590;8.854;2022-09-23T11:25:33;19.70;95.90
18225;DHT22;9237;48.590;8.854;2022-09-23T11:28:40;19.80;95.00
18225;DHT22;9237;48.590;8.854;2022-09-23T11:31:24;19.80;96.00
18225;DHT22;9237;48.590;8.854;2022-09-23T11:34:07;20.10;95.90
18225;DHT22;9237;48.590;8.854;2022-09-23T11:36:45;20.10;94.20
18225;DHT22;9237;48.590;8.854;2022-09-23T11:39:15;20.30;95.60
18225;DHT22;9237;48.590;8.854;2022-09-23T11:41:43;20.00;93.60
18225;DHT22;9237;48.590;8.854;2022-09-23T11:44:15;19.70;94.10
18225;DHT22;9237;48.590;8.854;2022-09-23T11:46:47;19.80;95.20
18225;DHT22;9237;48.590;8.854;2022-09-23T11:49:19;20.00;96.00
18225;DHT22;9237;48.590;8.854;2022-09-23T11:51:59;19.90;93.70
18225;DHT22;9237;48.590;8.854;2022-09-23T11:54:31;20.00;95.20
18225;DHT22;9237;48.590;8.854;2022-09-23T11:57:03;20.30;95.00
18225;DHT22;9237;48.590;8.854;2022-09-23T11:59:35;20.50;94.60
18225;DHT22;9237;48.590;8.854;2022-09-23T12:02:12;20.40;94.00
18225;DHT22;9237;48.590;8.854;2022-09-23T12:04:43;20.50;94.60
18225;DHT22;9237;48.590;8.854;2022-09-23T12:07:15;20.50;93.30
18225;DHT22;9237;48.590;8.854;2022-09-23T12:09:49;20.60;93.20
18225;DHT22;9237;48.590;8.854;2022-09-23T12:12:26;20.40;93.10
18225;DHT22;9237;48.590;8.854;2022-09-23T12:14:58;20.50;93.60
18225;DHT22;9237;48.590;8.854;2022-09-23T12:17:58;20.50;93.70
18225;DHT22;9237;48.590;8.854;2022-09-23T12:20:41;20.80;94.40
18225;DHT22;9237;48.590;8.854;2022-09-23T12:23:28;20.80;93.90
18225;DHT22;9237;48.590;8.854;2022-09-23T12:25:59;21.00;94.10
18225;DHT22;9237;48.590;8.854;2022-09-23T12:28:29;21.20;93.50
18225;DHT22;9237;48.590;8.854;2022-09-23T12:31:00;21.10;93.10
18225;DHT22;9237;48.590;8.854;2022-09-23T12:33:29;21.10;91.90
18225;DHT22;9237;48.590;8.854;2022-09-23T12:36:02;21.10;92.50
18225;DHT22;9237;48.590;8.854;2022-09-23T12:38:33;20.80;91.60
18225;DHT22;9237;48.590;8.854;2022-09-23T12:41:02;21.00;93.80
18225;DHT22;9237;48.590;8.854;2022-09-23T12:43:50;21.40;92.50
18225;DHT22;9237;48.590;8.854;2022-09-23T12:46:22;21.80;91.30
18225;DHT22;9237;48.590;8.854;2022-09-23T12:49:03;22.10;90.60
18225;DHT22;9237;48.590;8.854;2022-09-23T12:51:32;22.00;87.80
18225;DHT22;9237;48.590;8.854;2022-09-23T12:54:22;22.70;89.00
18225;DHT22;9237;48.590;8.854;2022-09-23T12:57:08;23.50;88.90
18225;DHT22;9237;48.590;8.854;2022-09-23T12:59:56;23.80;82.20
18225;DHT22;9237;48.590;8.854;2022-09-23T13:02:27;24.10;82.40
18225;DHT22;9237;48.590;8.854;2022-09-23T13:04:58;24.90;82.10
18225;DHT22;9237;48.590;8.854;2022-09-23T13:07:47;25.40;75.90
18225;DHT22;9237;48.590;8.854;2022-09-23T13:10:24;25.80;73.40
18225;DHT22;9237;48.590;8.854;2022-09-23T13:12:53;26.20;74.60
18225;DHT22;9237;48.590;8.854;2022-09-23T13:15:26;26.50;69.10
18225;DHT22;9237;48.590;8.854;2022-09-23T13:18:21;26.50;71.20
18225;DHT22;9237;48.590;8.854;2022-09-23T13:20:49;26.60;67.30
18225;DHT22;9237;48.590;8.854;2022-09-23T13:23:20;26.80;70.20
18225;DHT22;9237;48.590;8.854;2022-09-23T13:25:50;26.90;65.80
18225;DHT22;9237;48.590;8.854;2022-09-23T13:28:25;27.40;64.90
18225;DHT22;9237;48.590;8.854;2022-09-23T13:30:53;27.50;55.30
18225;DHT22;9237;48.590;8.854;2022-09-23T13:33:26;26.20;54.20
18225;DHT22;9237;48.590;8.854;2022-09-23T13:35:56;25.10;56.30
18225;DHT22;9237;48.590;8.854;2022-09-23T13:38:26;24.70;59.90
18225;DHT22;9237;48.590;8.854;2022-09-23T13:40:59;24.70;56.90
18225;DHT22;9237;48.590;8.854;2022-09-23T13:43:29;24.90;57.00
18225;DHT22;9237;48.590;8.854;2022-09-23T13:45:58;25.00;58.10
18225;DHT22;9237;48.590;8.854;2022-09-23T13:48:26;25.30;54.80
18225;DHT22;9237;48.590;8.854;2022-09-23T13:50:53;25.00;56.50
18225;DHT22;9237;48.590;8.854;2022-09-23T13:53:23;24.50;56.70
18225;DHT22;9237;48.590;8.854;2022-09-23T13:56:04;24.10;58.00
18225;DHT22;9237;48.590;8.854;2022-09-23T13:58:32;23.40;57.10
18225;DHT22;9237;48.590;8.854;2022-09-23T14:01:00;22.70;65.00
18225;DHT22;9237;48.590;8.854;2022-09-23T14:03:29;22.60;70.40
18225;DHT22;9237;48.590;8.854;2022-09-23T14:05:57;22.70;71.50
18225;DHT22;9237;48.590;8.854;2022-09-23T14:08:25;22.20;75.80
18225;DHT22;9237;48.590;8.854;2022-09-23T14:10:52;21.70;77.40
18225;DHT22;9237;48.590;8.854;2022-09-23T14:13:23;21.00;80.00
18225;DHT22;9237;48.590;8.854;2022-09-23T14:15:52;20.70;81.90
18225;DHT22;9237;48.590;8.854;2022-09-23T14:18:27;20.80;82.10
18225;DHT22;9237;48.590;8.854;2022-09-23T14:20:55;20.90;81.30
18225;DHT22;9237;48.590;8.854;2022-09-23T14:23:22;20.80;82.00
18225;DHT22;9237;48.590;8.854;2022-09-23T14:25:50;20.80;82.10
18225;DHT22;9237;48.590;8.854;2022-09-23T14:28:20;20.70;82.40
18225;DHT22;9237;48.590;8.854;2022-09-23T14:30:50;20.50;83.70
18225;DHT22;9237;48.590;8.854;2022-09-23T14:33:22;20.60;84.60
18225;DHT22;9237;48.590;8.854;2022-09-23T14:35:53;20.60;83.90
18225;DHT22;9237;48.590;8.854;2022-09-23T14:38:24;20.70;83.20
18225;DHT22;9237;48.590;8.854;2022-09-23T14:41:15;21.00;84.40
18225;DHT22;9237;48.590;8.854;2022-09-23T14:43:51;21.10;83.20
18225;DHT22;9237;48.590;8.854;2022-09-23T14:46:20;20.90;82.60
18225;DHT22;9237;48.590;8.854;2022-09-23T14:48:56;20.40;83.50
18225;DHT22;9237;48.590;8.854;2022-09-23T14:51:30;20.10;84.70
18225;DHT22;9237;48.590;8.854;2022-09-23T14:57:23;20.50;84.70
18225;DHT22;9237;48.590;8.854;2022-09-23T14:59:53;20.60;85.10
18225;DHT22;9237;48.590;8.854;2022-09-23T15:02:32;20.90;85.20
18225;DHT22;9237;48.590;8.854;2022-09-23T15:05:17;20.50;83.60
18225;DHT22;9237;48.590;8.854;2022-09-23T15:07:47;20.60;83.90
18225;DHT22;9237;48.590;8.854;2022-09-23T15:10:18;20.70;84.50
18225;DHT22;9237;48.590;8.854;2022-09-23T15:12:48;20.50;85.20
18225;DHT22;9237;48.590;8.854;2022-09-23T15:15:18;20.40;84.00
18225;DHT22;9237;48.590;8.854;2022-09-23T15:17:45;20.20;86.50
18225;DHT22;9237;48.590;8.854;2022-09-23T15:20:19;19.90;88.60
18225;DHT22;9237;48.590;8.854;2022-09-23T15:22:49;19.70;89.70
18225;DHT22;9237;48.590;8.854;2022-09-23T15:25:18;19.30;89.70
18225;DHT22;9237;48.590;8.854;2022-09-23T15:27:57;19.20;90.40
18225;DHT22;9237;48.590;8.854;2022-09-23T15:30:26;18.90;90.80
18225;DHT22;9237;48.590;8.854;2022-09-23T15:32:53;18.90;90.70
18225;DHT22;9237;48.590;8.854;2022-09-23T15:35:21;18.70;91.50
18225;DHT22;9237;48.590;8.854;2022-09-23T15:37:50;18.60;91.30
18225;DHT22;9237;48.590;8.854;2022-09-23T15:40:22;18.50;92.00
18225;DHT22;9237;48.590;8.854;2022-09-23T15:42:52;18.20;91.80
18225;DHT22;9237;48.590;8.854;2022-09-23T15:45:28;18.10;92.40
18225;DHT22;9237;48.590;8.854;2022-09-23T15:47:58;18.10;93.00
18225;DHT22;9237;48.590;8.854;2022-09-23T15:50:26;18.00;92.90
18225;DHT22;9237;48.590;8.854;2022-09-23T15:52:55;17.90;93.10
18225;DHT22;9237;48.590;8.854;2022-09-23T15:55:22;17.80;93.40
18225;DHT22;9237;48.590;8.854;2022-09-23T15:57:49;17.80;93.90
18225;DHT22;9237;48.590;8.854;2022-09-23T16:00:16;17.80;94.20
18225;DHT22;9237;48.590;8.854;2022-09-23T16:02:46;17.80;94.00
18225;DHT22;9237;48.590;8.854;2022-09-23T16:05:18;17.70;94.00
18225;DHT22;9237;48.590;8.854;2022-09-23T16:07:46;17.70;94.00
18225;DHT22;9237;48.590;8.854;2022-09-23T16:10:17;17.50;94.10
18225;DHT22;9237;48.590;8.854;2022-09-23T16:12:44;17.40;94.50
18225;DHT22;9237;48.590;8.854;2022-09-23T16:15:12;17.30;94.50
18225;DHT22;9237;48.590;8.854;2022-09-23T16:17:40;17.20;94.80
18225;DHT22;9237;48.590;8.854;2022-09-23T16:20:10;17.10;95.20
18225;DHT22;9237;48.590;8.854;2022-09-23T16:22:38;17.00;95.40
18225;DHT22;9237;48.590;8.854;2022-09-23T16:25:07;17.00;95.80
18225;DHT22;9237;48.590;8.854;2022-09-23T16:27:35;17.00;96.00